Archival Weather

Sydney Intl

Sydney, Australia (YSSY)

Report from: Saturday, March 18, 2023 9:00 AM AEDT
Current time: Saturday, June 22, 2024 9:26 AM AEST

Current weather – Weather history – Daily summaries
Weather forecast

Temperature25.0°C (77.0°F)
Dew point20.0°C (68.0°F)
Winds 5 kts (2.6 m/s, 5.8 mph) Northeast (40°)
Visibility6.2 mi. (10 km)
Clouds Few clouds 1,700 ft. (518 m)
Ceiling: Broken clouds 2,200 ft. (671 m)
Altimeter30.09 in.Hg (1019 mB)
Relative humidity74 %
Density altitude1,282 ft. (391 m)
Flight conditions Marginal Visual Meteorological Conditions
Raw dataYSSY 172200Z 04005KT 9999 FEW017 BKN022 25/20 Q1019 RF00.0/000.0
An error has occurred. This application may no longer respond until reloaded. Reload 🗙